Flight Number: EUR2142 Duration: 1:30
Departure: Warsaw Okecie (EPWA) at 08:30 Distance: 485 Nm
Arrival: Frankfurt Airport (EDDF) at 10:00 Equipment: CRJ700

Weather Information
Warszawa-Okecie, Poland (EPWA) 52-10N 020-58E 107M Oct 17, 2018 - 11:30 PM EDT / 2018.10.18 0330 UTC
Wind: from the SE (140 degrees) at 3 MPH (3 KT) (direction variable):0
Visibility: 4 mile(s):0 Temperature: 44 F (7 C) Dew Point: 42 F (6 C) Relative Humidity: 93% Pressure (altimeter): 30.12 in. Hg (1020 hPa)
ob: EPWA 180330Z 14003KT 100V160 8000 NSC 07/06 Q1020 TEMPO 4000 BR cycle: 3
Sunrise: 05:11 Sunset: 15:31 (UTC)

Frankfurt / M-Flughafen, Germany (EDDF) 50-03N 008-36E 113M Oct 17, 2018 - 11:20 PM EDT / 2018.10.18 0320 UTC
Wind: from the WSW (250 degrees) at 1 MPH (1 KT):0
Visibility: greater than 7 mile(s):0 Temperature: 50 F (10 C) Dew Point: 48 F (9 C) Relative Humidity: 93% Pressure (altimeter): 30.09 in. Hg (1019 hPa)
ob: EDDF 180320Z 25001KT CAVOK 10/09 Q1019 NOSIG cycle: 3
Sunrise: 05:57 Sunset: 16:24 (UTC)

TAF:2018/10/17 18:29 TAF EDDF 171700Z 1718/1824 03004KT CAVOK BECMG 1808/1810 02009KT

Previous Pireps for this route
Date Aircraft Flight time Fuel used Landing rate On time
2012-10-14CRJ70001.398593-277No
2012-10-22CRJ7001.3070000Yes
2012-10-28CRJ70001.405690-71No
2013-08-27CRJ7001.4658640No
2013-09-18CRJ7001.3368100No
2014-07-23CRJ70001.357520-145Yes
2014-07-27CRJ70001.257441-286Yes
2015-04-10CRJ7001.2750900Yes
(pireps marked green are flown by you)

Route map